Thursday, October 02, 2014
00:26 UTC
  |  Log In   |  Register Free
Airport Search:

Norwood Memorial Airport
(KOWD)

FAA data valid effective September 18, 2014 - November 13, 2014 (unless otherwise noted).

 
 
 
 
 
 
 
 
 
 
 
 
 
 

Current Aviation Weather for Norwood Memorial Airport (KOWD)

The most recent METAR observation for KOWD was updated at: 0012
METAR Summary (Translated METAR)
KOWD
012353Z 03010KT 10SM OVC006 14/13 A3007 RMK AO2 RAE48 SLP184 P0001 60026 T01440133 10144 20139 51007
KBOS
012354Z 03017G22KT 3SM -RA BR BKN008 OVC060 14/13 A3008 RMK AO2 SFC VIS 6 SLP187 P0004 60023 T01390133 10139 20133 51005
(12.7 nm NE from KOWD)
KBED
012356Z 03011G17KT 10SM OVC009 13/12 A3009 RMK AO2 RAE26 SLP203 P0000 60017 T01330122 10133 20133 51008
(17.5 nm NW from KOWD)
TAF Summary (Translated TAF)
KBOS
(12.7 nm NE from KOWD)
012011Z 0120/0224 04015KT 6SM -RA BR OVC010 FM012300 04015G25KT 3SM -RA BR OVC008 FM021100 03015G23KT 3SM BR OVC008 FM021400 05013KT P6SM BKN020
KBED
(17.5 nm NW from KOWD)
012011Z 0120/0218 03012KT 5SM RA BR OVC006 FM012300 03008KT 3SM -RA BR OVC006 FM020300 02010G18KT 2SM -RA BR OVC008 FM021000 03010G18KT 3SM BR OVC008 FM021400 03010G18KT 3SM BR OVC010 FM021600 03011G20KT 6SM BR OVC015
  Airport Weather Conditions for KOWD

 Current Weather at OWD
58° F
Overcast
Northeast winds at 11.5 mph
OWD NOAA Radar

Pressure: 30.07 in
Humidity: 93%
Wind: Northeast at 11.5 MPH (10 KT)
Dew Point: 55.9°F
Visibility: 10.00 mi


Airport Weather Forecast for KOWD

Translated METAR and TAF for KOWD
Translated METAR for KOWD (0020 UTC 02 October 2014)
found at http://aviationweather.gov/adds/metars/
 
METAR text: KOWD 012353Z 03010KT 10SM OVC006 14/13 A3007 RMK AO2 RAE48 SLP184 P0001 60026 T01440133 10144 20139 51007
Conditions at: KOWD (NORWOOD , MA, US) observed 2353 UTC 01 October 2014
Temperature: 14.4°C (58°F)
Dewpoint: 13.3°C (56°F) [RH = 93%]
Pressure (altimeter): 30.07 inches Hg (1018.4 mb)
[Sea-level pressure: 1018.4 mb]
Winds: from the NNE (30 degrees) at 12 MPH (10 knots; 5.2 m/s)
Visibility: 10 or more miles (16+ km)
Ceiling: 600 feet AGL
Clouds: overcast cloud deck at 600 feet AGL
Weather: no significant weather observed at this time
Translated TAF for KOWD

There is no translated TAF available for this airport

Find All Airport Services Find A Hotel Find A Rental Car Find A Golf Course Find A Restaurant $100 Hamburger



FBO's on the Field
FBO Company Facility Photos Services Transportation Aviation Fuel Prices: Prices include tax
Catering Weather Repair Courtesy Rental Type 100LL JetA JetA+ MOGAS 8087
 
FlightLevel Aviation

Currently rated 2.7 by 2 people
FS:Shell
Last Updated: Sep-29
Login to update fuel prices
SS:
Contact FlightLevel AviationMore FBO Information
 
Add another FBO Facility Photos Catering Weather Repair Courtesy Rental Type 100LL JetA JetA+ MOGAS 8087
Services Transportation Aviation Fuel Prices: Prices include tax


model-print
model-print
model-print
model-print